Time;durP1;ratioP1;P1;durP2;ratioP2;P2;SDS_P1;SDS_P2;PMS_P1;PMS_P2;Temp;Humidity;BMP_temperature;BMP_pressure;BME280_temperature;BME280_humidity;BME280_pressure;Samples;Min_cycle;Max_cycle;Signal;HPM_P1;HPM_P2
2023/01/07 00:12:32;;;;;;;13.73;6.47;;;;;;;8.59;100.00;101476.53;4875700;29;20121;-93
2023/01/07 00:19:03;;;;;;;11.30;6.55;;;;;;;8.62;100.00;101462.63;4918027;29;20091;-94
2023/01/07 00:21:48;;;;;;;10.55;7.07;;;;;;;8.67;100.00;101471.03;4915985;29;20475;-93
2023/01/07 00:27:50;;;;;;;12.80;7.93;;;;;;;8.67;100.00;101462.94;4899012;29;20067;-93
2023/01/07 00:30:53;;;;;;;14.23;7.50;;;;;;;8.74;100.00;101479.22;4881237;29;20028;-93
2023/01/07 00:43:55;;;;;;;;;;;;;;;;;;;;;
2023/01/07 00:56:32;;;;;;;13.73;7.95;;;;;;;8.84;100.00;101441.91;4771155;29;20131;-95
2023/01/07 01:09:31;;;;;;;11.85;7.07;;;;;;;8.80;100.00;101413.56;4917904;29;20409;-94
2023/01/07 01:12:23;;;;;;;13.38;7.40;;;;;;;8.75;100.00;101406.03;4890882;29;20179;-94
2023/01/07 01:31:17;;;;;;;13.93;6.97;;;;;;;8.62;100.00;101391.47;4805488;29;20053;-94
2023/01/07 01:47:07;;;;;;;;;;;;;;;;;;;;;
2023/01/07 02:09:55;;;;;;;9.35;5.50;;;;;;;8.62;100.00;101395.00;4793551;29;20485;-95
2023/01/07 02:20:35;;;;;;;10.60;4.82;;;;;;;8.53;100.00;101378.06;4855994;29;20085;-94
2023/01/07 02:26:54;;;;;;;11.57;5.45;;;;;;;8.58;100.00;101389.16;4863410;29;20044;-94
2023/01/07 02:36:48;;;;;;;9.57;5.10;;;;;;;8.46;100.00;101387.09;4899902;29;20047;-95
2023/01/07 02:56:23;;;;;;;9.80;4.75;;;;;;;8.73;100.00;101372.06;4792692;29;20049;-95
2023/01/07 03:09:35;;;;;;;7.03;4.00;;;;;;;8.99;100.00;101367.97;4807908;29;20181;-93
2023/01/07 03:30:06;;;;;;;6.10;3.20;;;;;;;9.05;100.00;101313.91;4871861;29;20079;-93
2023/01/07 03:43:11;;;;;;;;;;;;;;;;;;;;;
2023/01/07 03:49:45;;;;;;;6.47;3.00;;;;;;;9.25;100.00;101313.25;4753613;29;20124;-94
2023/01/07 03:52:13;;;;;;;4.80;2.45;;;;;;;9.16;100.00;101299.00;4737280;30;20052;-95
2023/01/07 03:55:00;;;;;;;;;;;;;;;;;;;;;
2023/01/07 04:05:13;;;;;;;;;;;;;;;;;;;;;
2023/01/07 04:07:52;;;;;;;;;;;;;;;;;;;;;
2023/01/07 04:24:09;;;;;;;4.45;2.45;;;;;;;9.17;100.00;101260.06;4806072;29;20046;-94
2023/01/07 04:38:13;;;;;;;6.57;2.28;;;;;;;9.04;100.00;101249.97;4859456;29;20530;-95
2023/01/07 04:44:14;;;;;;;4.10;2.00;;;;;;;8.88;100.00;101232.13;4825026;29;20087;-96
2023/01/07 04:50:50;;;;;;;7.60;2.58;;;;;;;8.81;100.00;101227.69;4824564;29;20049;-95
2023/01/07 04:53:41;;;;;;;;;;;;;;;;;;;;;
2023/01/07 05:06:10;;;;;;;3.30;1.92;;;;;;;8.90;100.00;101211.13;4805160;29;20045;-95
2023/01/07 05:08:39;;;;;;;3.53;2.15;;;;;;;8.91;100.00;101223.63;4866799;29;20087;-95
2023/01/07 05:11:12;;;;;;;6.68;1.95;;;;;;;8.84;100.00;101211.06;4903626;29;20135;-94
2023/01/07 05:14:01;;;;;;;4.32;1.95;;;;;;;8.84;100.00;101213.78;4890489;29;20036;-95
2023/01/07 05:16:48;;;;;;;;;;;;;;;;;;;;;
2023/01/07 05:19:36;;;;;;;4.35;2.15;;;;;;;8.76;100.00;101212.88;4920329;29;20035;-95
2023/01/07 05:35:50;;;;;;;4.93;1.67;;;;;;;8.76;100.00;101198.53;4920637;29;20215;-95
2023/01/07 05:38:28;;;;;;;;;;;;;;;;;;;;;
2023/01/07 06:07:27;;;;;;;3.83;1.50;;;;;;;9.00;100.00;101175.59;4809461;29;20065;-95
2023/01/07 06:09:58;;;;;;;4.15;1.15;;;;;;;8.99;100.00;101176.66;4844494;29;20038;-95
2023/01/07 06:12:53;;;;;;;;;;;;;;;;;;;;;
2023/01/07 06:15:24;;;;;;;2.60;1.23;;;;;;;9.03;100.00;101175.19;4895008;29;20086;-94
2023/01/07 06:28:07;;;;;;;4.13;1.38;;;;;;;9.05;100.00;101147.94;4903729;29;20067;-92
2023/01/07 06:31:11;;;;;;;2.47;0.93;;;;;;;9.19;100.00;101165.13;5011643;27;20437;-94
2023/01/07 06:33:37;;;;;;;1.77;0.95;;;;;;;9.13;100.00;101148.63;5010758;28;20100;-96
2023/01/07 06:36:06;;;;;;;1.40;0.90;;;;;;;9.18;100.00;101148.03;4995591;28;20030;-96
2023/01/07 06:38:34;;;;;;;6.20;1.27;;;;;;;9.12;100.00;101148.81;4995657;28;20031;-96
2023/01/07 06:41:01;;;;;;;2.97;0.80;;;;;;;9.11;100.00;101150.69;5011593;28;20042;-96
2023/01/07 06:43:27;;;;;;;5.22;1.05;;;;;;;9.13;100.00;101154.03;5012646;28;20034;-96
2023/01/07 06:45:56;;;;;;;1.65;0.90;;;;;;;9.13;100.00;101154.03;5011559;28;20048;-96
2023/01/07 06:48:33;;;;;;;1.52;0.73;;;;;;;9.10;100.00;101149.03;5012074;28;20458;-94
2023/01/07 06:50:58;;;;;;;3.53;1.10;;;;;;;9.07;100.00;101138.59;5011026;28;20030;-94
2023/01/07 06:56:32;;;;;;;3.92;1.08;;;;;;;9.04;100.00;101133.56;5034498;28;20030;-95
2023/01/07 06:59:05;;;;;;;3.17;1.25;;;;;;;9.05;100.00;101134.41;4995880;28;20030;-94
2023/01/07 07:01:30;;;;;;;2.13;0.80;;;;;;;9.09;100.00;101127.56;4995096;28;20042;-92
2023/01/07 07:03:56;;;;;;;2.00;0.77;;;;;;;9.08;100.00;101129.44;4993559;28;20030;-93
2023/01/07 07:06:24;;;;;;;3.00;0.70;;;;;;;9.12;100.00;101129.88;5010638;28;20038;-93
2023/01/07 07:08:52;;;;;;;1.75;0.90;;;;;;;9.06;100.00;101120.66;4994316;28;20034;-93
2023/01/07 07:11:38;;;;;;;3.17;0.88;;;;;;;9.09;100.00;101122.16;5010364;28;20056;-93
2023/01/07 07:14:08;;;;;;;1.35;0.68;;;;;;;9.07;100.00;101118.81;5008917;28;20045;-91
2023/01/07 07:16:38;;;;;;;2.58;0.90;;;;;;;9.07;100.00;101106.09;4994308;28;20064;-90
2023/01/07 07:19:06;;;;;;;2.80;1.05;;;;;;;9.03;100.00;101112.13;4993341;28;20475;-90
2023/01/07 07:21:54;;;;;;;1.23;0.85;;;;;;;9.02;100.00;101103.19;4989915;28;20387;-90
2023/01/07 07:24:25;;;;;;;3.75;0.98;;;;;;;9.01;100.00;101116.91;5005009;28;20041;-90
2023/01/07 07:26:59;;;;;;;2.30;0.70;;;;;;;8.97;100.00;101102.91;4992611;28;20380;-91
2023/01/07 07:29:27;;;;;;;2.20;0.90;;;;;;;8.98;100.00;101106.50;5016267;28;20156;-90
2023/01/07 07:31:55;;;;;;;3.05;0.80;;;;;;;8.95;100.00;101102.28;5029048;28;20128;-90
2023/01/07 07:34:20;;;;;;;5.93;1.05;;;;;;;8.91;100.00;101103.72;5028516;28;20033;-90
2023/01/07 07:36:51;;;;;;;3.23;0.90;;;;;;;8.87;100.00;101095.19;5029274;28;20041;-89
2023/01/07 07:39:32;;;;;;;1.15;0.70;;;;;;;8.90;100.00;101100.19;5028908;28;20120;-90
2023/01/07 07:42:00;;;;;;;1.60;1.00;;;;;;;8.92;100.00;101097.28;5002498;28;20436;-90
2023/01/07 07:44:38;;;;;;;;;;;;;;;;;;;;;
2023/01/07 07:47:21;;;;;;;4.10;0.80;;;;;;;8.86;100.00;101093.50;5015459;28;20041;-91
2023/01/07 07:49:57;;;;;;;;;;;;;;;;;;;;;
2023/01/07 07:52:23;;;;;;;1.17;0.60;;;;;;;8.95;100.00;101086.88;5016722;28;20032;-89
2023/01/07 07:54:50;;;;;;;1.55;0.77;;;;;;;8.91;100.00;101088.31;5015167;28;20109;-90
2023/01/07 07:57:32;;;;;;;1.30;1.03;;;;;;;8.95;100.00;101096.88;5015547;28;20438;-90
2023/01/07 07:59:57;;;;;;;2.13;0.93;;;;;;;8.90;100.00;101077.69;5016429;28;20096;-89
2023/01/07 08:02:25;;;;;;;2.00;0.80;;;;;;;8.90;100.00;101072.28;5014561;28;20030;-89
2023/01/07 08:04:53;;;;;;;5.28;0.90;;;;;;;8.87;100.00;101073.53;5015359;28;20033;-90
2023/01/07 08:07:44;;;;;;;2.92;0.85;;;;;;;8.93;100.00;101083.56;5015252;28;20394;-89
2023/01/07 08:10:09;;;;;;;1.88;1.00;;;;;;;8.91;100.00;101068.53;5015199;28;20045;-89
2023/01/07 08:12:39;;;;;;;1.53;0.80;;;;;;;8.91;100.00;101061.25;5020083;28;20026;-91
2023/01/07 08:15:11;;;;;;;2.00;0.75;;;;;;;8.99;100.00;101067.53;5001860;28;20034;-90
2023/01/07 08:17:53;;;;;;;2.80;0.90;;;;;;;9.04;100.00;101062.38;5015086;28;20026;-91
2023/01/07 08:20:43;;;;;;;;;;;;;;;;;;;;;
2023/01/07 08:23:12;;;;;;;1.60;0.82;;;;;;;9.10;100.00;101065.09;5014945;28;20038;-91
2023/01/07 08:25:48;;;;;;;;;;;;;;;;;;;;;
2023/01/07 08:28:18;;;;;;;2.05;0.88;;;;;;;9.21;100.00;101052.88;5017473;28;20460;-90
2023/01/07 08:30:44;;;;;;;1.13;0.70;;;;;;;9.20;99.55;101051.22;5014360;28;20077;-91
2023/01/07 08:33:34;;;;;;;2.43;0.63;;;;;;;9.28;99.41;101052.91;5014710;28;20026;-91
2023/01/07 08:36:18;;;;;;;1.05;0.70;;;;;;;9.29;99.50;101058.13;5017151;28;20072;-91
2023/01/07 08:38:57;;;;;;;1.52;0.95;;;;;;;9.29;98.59;101049.16;5017345;28;20041;-95
2023/01/07 08:42:03;;;;;;;1.42;0.70;;;;;;;9.33;99.25;101047.72;5025082;28;20090;-92
2023/01/07 08:44:33;;;;;;;2.23;0.63;;;;;;;9.38;98.71;101036.28;5000732;28;20479;-88
2023/01/07 08:48:45;;;;;;;;;;;;;;;;;;;;;
2023/01/07 08:54:06;;;;;;;1.08;0.68;;;;;;;9.53;95.72;101031.53;5196663;23;20144;-92
2023/01/07 08:57:00;;;;;;;0.90;0.60;;;;;;;9.57;94.96;101031.97;5018571;28;20103;-93
2023/01/07 08:59:56;;;;;;;1.80;0.70;;;;;;;9.54;95.72;101030.50;5025059;28;20045;-93
2023/01/07 09:02:39;;;;;;;;;;;;;;;;;;;;;
2023/01/07 09:08:24;;;;;;;;;;;;;;;;;;;;;
2023/01/07 09:10:55;;;;;;;2.30;0.70;;;;;;;9.61;94.69;101017.81;5035385;28;20025;-93
2023/01/07 09:13:50;;;;;;;1.17;0.60;;;;;;;9.63;94.25;101014.91;5017229;28;20064;-92
2023/01/07 09:16:20;;;;;;;0.80;0.60;;;;;;;9.70;94.43;101014.91;5033454;28;20481;-93
2023/01/07 09:19:05;;;;;;;1.00;0.60;;;;;;;9.71;93.08;101011.16;5014549;28;20052;-93
2023/01/07 09:21:41;;;;;;;2.55;0.65;;;;;;;9.71;93.51;101008.44;5033606;28;20048;-93
2023/01/07 09:24:07;;;;;;;2.63;0.60;;;;;;;9.77;91.99;100999.50;5018196;28;20041;-93
2023/01/07 09:26:37;;;;;;;1.45;0.55;;;;;;;9.79;92.82;101002.84;5033132;28;20034;-93
2023/01/07 09:29:08;;;;;;;1.67;0.70;;;;;;;9.80;92.45;101005.34;5016676;28;20033;-93
2023/01/07 09:32:11;;;;;;;1.58;0.70;;;;;;;9.86;92.14;101002.84;5033327;28;20029;-93
2023/01/07 09:34:42;;;;;;;1.90;0.70;;;;;;;9.86;91.18;100992.00;5013595;28;20070;-93
2023/01/07 09:37:30;;;;;;;;;;;;;;;;;;;;;
2023/01/07 09:40:17;;;;;;;;;;;;;;;;;;;;;
2023/01/07 09:43:30;;;;;;;;;;;;;;;;;;;;;
2023/01/07 09:46:12;;;;;;;2.03;0.80;;;;;;;10.09;89.34;100976.16;5050422;28;20032;-93
2023/01/07 09:48:57;;;;;;;0.65;0.50;;;;;;;10.08;88.66;100969.06;5016716;28;20037;-93
2023/01/07 09:52:10;;;;;;;;;;;;;;;;;;;;;
2023/01/07 09:55:00;;;;;;;0.65;0.50;;;;;;;10.29;88.76;100969.88;5050505;28;20056;-93
2023/01/07 09:57:48;;;;;;;2.75;0.50;;;;;;;10.35;87.32;100955.53;5025323;28;20029;-93
2023/01/07 10:00:39;;;;;;;0.93;0.60;;;;;;;10.39;88.74;100956.75;4987177;28;20049;-93
2023/01/07 10:03:38;;;;;;;1.35;0.65;;;;;;;10.41;87.87;100957.41;5008225;28;20041;-93
2023/01/07 10:06:11;;;;;;;1.05;0.80;;;;;;;10.47;85.56;100964.69;5036188;28;20057;-93
2023/01/07 10:09:06;;;;;;;1.15;0.55;;;;;;;10.51;87.95;100949.66;5019073;28;20041;-92
2023/01/07 10:12:20;;;;;;;1.08;0.50;;;;;;;10.56;87.51;100949.00;5018685;28;20087;-90
2023/01/07 10:19:00;;;;;;;1.40;0.60;;;;;;;10.67;87.36;100912.22;4995008;28;20042;-92
2023/01/07 10:22:07;;;;;;;1.08;0.50;;;;;;;10.68;86.98;100920.16;4951564;28;20031;-92
2023/01/07 10:27:58;;;;;;;0.98;0.50;;;;;;;10.75;85.55;100884.00;4948585;29;20043;-92
2023/01/07 10:30:42;;;;;;;1.35;0.68;;;;;;;10.78;84.72;100895.28;4935738;29;20043;-92
2023/01/07 10:33:29;;;;;;;;;;;;;;;;;;;;;
2023/01/07 10:36:06;;;;;;;0.80;0.57;;;;;;;10.93;82.01;100884.16;5020594;28;20036;-92
2023/01/07 10:38:46;;;;;;;1.02;0.57;;;;;;;10.87;81.43;100880.41;5018534;28;20068;-91
2023/01/07 10:41:39;;;;;;;1.20;0.60;;;;;;;11.00;81.46;100875.97;5018455;28;20457;-91
2023/01/07 10:47:41;;;;;;;1.20;0.70;;;;;;;11.09;81.54;100873.81;5028465;28;20040;-92
2023/01/07 10:50:37;;;;;;;;;;;;;;;;;;;;;
2023/01/07 10:56:47;;;;;;;1.35;0.70;;;;;;;11.21;80.59;100839.50;5021286;28;20091;-92
2023/01/07 11:00:01;;;;;;;0.52;0.43;;;;;;;11.29;79.05;100836.50;5017922;28;20051;-92
2023/01/07 11:02:42;;;;;;;;;;;;;;;;;;;;;
2023/01/07 11:05:24;;;;;;;2.00;0.60;;;;;;;11.23;76.81;100831.94;5019017;28;20040;-91
2023/01/07 11:08:01;;;;;;;0.80;0.50;;;;;;;11.25;76.94;100824.44;5018379;28;20059;-91
2023/01/07 11:10:45;;;;;;;1.45;0.60;;;;;;;11.35;76.85;100837.50;5016017;28;20065;-91
2023/01/07 11:16:26;;;;;;;1.52;0.60;;;;;;;11.54;75.34;100828.34;5034927;28;20095;-91
2023/01/07 11:19:17;;;;;;;1.40;0.68;;;;;;;11.62;74.99;100810.94;5017000;28;20033;-91
2023/01/07 11:22:16;;;;;;;0.80;0.60;;;;;;;11.66;75.81;100819.47;5017694;28;20087;-91
2023/01/07 11:24:57;;;;;;;0.83;0.50;;;;;;;11.65;74.16;100799.63;5016074;28;20074;-92
2023/01/07 11:27:36;;;;;;;1.40;0.80;;;;;;;11.59;72.44;100792.38;5017129;28;20022;-92
2023/01/07 11:30:45;;;;;;;;;;;;;;;;;;;;;
2023/01/07 11:39:20;;;;;;;0.90;0.50;;;;;;;11.75;72.81;100769.19;5005079;28;20092;-93
2023/01/07 11:42:39;;;;;;;1.02;0.77;;;;;;;11.87;71.55;100766.56;4976844;28;20042;-92
2023/01/07 11:45:41;;;;;;;;;;;;;;;;;;;;;
2023/01/07 11:48:44;;;;;;;1.33;0.60;;;;;;;11.97;71.26;100738.88;4995719;28;20444;-93
2023/01/07 11:55:02;;;;;;;1.35;0.75;;;;;;;13.67;67.08;100719.53;4995342;28;20038;-92
2023/01/07 11:57:28;;;;;;;1.88;0.75;;;;;;;14.74;60.74;100717.31;4994370;28;20034;-89
2023/01/07 12:00:51;;;;;;;;;;;;;;;;;;;;;
2023/01/07 12:03:38;;;;;;;1.10;0.63;;;;;;;16.46;58.22;100680.03;4977730;28;20050;-96
2023/01/07 12:13:39;;;;;;;;;;;;;;;;;;;;;
2023/01/07 12:17:24;;;;;;;;;;;;;;;;;;;;;
2023/01/07 12:24:12;;;;;;;1.33;1.00;;;;;;;16.71;54.91;100684.09;4930551;29;20123;-94
2023/01/07 12:26:57;;;;;;;;;;;;;;;;;;;;;
2023/01/07 12:29:38;;;;;;;;;;;;;;;;;;;;;
2023/01/07 12:32:52;;;;;;;2.50;1.10;;;;;;;18.69;50.02;100660.88;4934844;29;20039;-95
2023/01/07 12:46:57;;;;;;;;;;;;;;;;;;;;;
2023/01/07 12:49:25;;;;;;;;;;;;;;;;;;;;;
2023/01/07 12:56:14;;;;;;;1.70;1.13;;;;;;;16.56;49.19;100624.50;4915960;29;20036;-93
2023/01/07 12:59:21;;;;;;;;;;;;;;;;;;;;;
2023/01/07 13:02:57;;;;;;;;;;;;;;;;;;;;;
2023/01/07 13:06:19;;;;;;;1.45;1.02;;;;;;;14.76;56.54;100603.19;4887553;29;20507;-90
2023/01/07 13:09:26;;;;;;;3.03;1.10;;;;;;;14.37;56.98;100590.25;4891598;29;20055;-90
2023/01/07 13:15:02;;;;;;;1.20;0.97;;;;;;;13.63;60.02;100579.34;4993855;28;20097;-90
2023/01/07 13:17:30;;;;;;;2.20;1.00;;;;;;;13.61;59.70;100584.19;4993416;28;20502;-87
2023/01/07 13:20:10;;;;;;;1.30;0.98;;;;;;;13.48;60.75;100580.69;4984362;28;20100;-88
2023/01/07 13:22:41;;;;;;;5.13;1.17;;;;;;;13.21;61.29;100568.63;4986740;28;20386;-86
2023/01/07 13:25:11;;;;;;;2.38;1.05;;;;;;;13.14;61.66;100579.69;5010585;28;20038;-84
2023/01/07 13:28:12;;;;;;;1.80;0.83;;;;;;;12.95;63.06;100571.63;4996384;28;20069;-84
2023/01/07 13:31:16;;;;;;;1.48;1.00;;;;;;;12.93;63.55;100559.31;4995589;28;20029;-83
2023/01/07 13:34:23;;;;;;;2.53;1.13;;;;;;;12.69;64.11;100558.50;5013988;28;20036;-84
2023/01/07 13:36:59;;;;;;;2.40;1.10;;;;;;;12.53;64.34;100547.25;4999417;28;20044;-84
2023/01/07 13:54:14;;;;;;;;;;;;;;;;;;;;;
2023/01/07 14:07:30;;;;;;;;;;;;;;;;;;;;;
2023/01/07 14:10:42;;;;;;;1.50;0.90;;;;;;;13.02;66.14;100508.03;4901942;29;20500;-91
2023/01/07 14:20:33;;;;;;;1.75;1.27;;;;;;;12.88;66.68;100488.41;4830718;29;20512;-91
2023/01/07 14:24:12;;;;;;;;;;;;;;;;;;;;;
2023/01/07 14:30:59;;;;;;;;;;;;;;;;;;;;;
2023/01/07 14:34:00;;;;;;;2.10;1.20;;;;;;;11.87;69.22;100481.97;4856294;29;20053;-91
2023/01/07 14:37:10;;;;;;;;;;;;;;;;;;;;;
2023/01/07 14:40:31;;;;;;;;;;;;;;;;;;;;;
2023/01/07 14:47:48;;;;;;;;;;;;;;;;;;;;;
2023/01/07 14:53:41;;;;;;;;;;;;;;;;;;;;;
2023/01/07 15:00:37;;;;;;;;;;;;;;;;;;;;;
2023/01/07 15:03:45;;;;;;;1.88;1.00;;;;;;;10.79;73.37;100457.31;4881319;29;20041;-92
2023/01/07 15:31:48;;;;;;;1.75;1.00;;;;;;;10.26;77.22;100436.13;4937701;28;20034;-92
2023/01/07 15:38:00;;;;;;;3.22;1.15;;;;;;;10.18;77.58;100418.25;4954427;29;20516;-93
2023/01/07 15:51:52;;;;;;;1.75;0.88;;;;;;;9.98;79.17;100403.03;4857641;29;20077;-93
2023/01/07 15:58:05;;;;;;;;;;;;;;;;;;;;;
2023/01/07 16:08:16;;;;;;;;;;;;;;;;;;;;;
2023/01/07 16:14:27;;;;;;;;;;;;;;;;;;;;;
2023/01/07 16:17:45;;;;;;;1.30;0.80;;;;;;;8.82;88.99;100377.16;4867353;29;20052;-93
2023/01/07 16:20:48;;;;;;;2.10;1.08;;;;;;;8.58;89.96;100377.66;4913616;29;20077;-93
2023/01/07 16:24:25;;;;;;;;;;;;;;;;;;;;;
2023/01/07 16:27:36;;;;;;;2.65;1.10;;;;;;;8.47;94.31;100372.09;4908209;29;20125;-93
2023/01/07 16:36:40;;;;;;;2.20;1.20;;;;;;;8.33;95.04;100366.69;4973357;28;20169;-92
2023/01/07 16:40:06;;;;;;;;;;;;;;;;;;;;;
2023/01/07 16:46:54;;;;;;;;;;;;;;;;;;;;;
2023/01/07 16:49:52;;;;;;;2.80;1.20;;;;;;;8.45;97.04;100372.31;4963812;28;20034;-91
2023/01/07 16:53:14;;;;;;;2.72;1.25;;;;;;;8.21;100.00;100361.09;4902020;29;20140;-92
2023/01/07 16:55:51;;;;;;;2.97;1.38;;;;;;;8.04;100.00;100376.09;4977168;28;20048;-91
2023/01/07 16:58:54;;;;;;;2.65;1.70;;;;;;;7.75;100.00;100366.56;4998763;28;20036;-91
2023/01/07 17:01:32;;;;;;;2.28;1.27;;;;;;;7.69;100.00;100381.72;4996957;28;20466;-91
2023/01/07 17:04:08;;;;;;;3.58;1.98;;;;;;;7.55;100.00;100381.72;4995998;28;20033;-90
2023/01/07 17:09:56;;;;;;;8.25;1.80;;;;;;;7.42;100.00;100397.09;5016279;28;20057;-90
2023/01/07 17:12:56;;;;;;;6.30;1.40;;;;;;;7.41;100.00;100398.13;4999190;28;20045;-90
2023/01/07 17:15:33;;;;;;;2.63;1.50;;;;;;;7.36;100.00;100391.47;4996839;28;20037;-91
2023/01/07 17:18:16;;;;;;;4.28;2.00;;;;;;;7.29;100.00;100385.25;4986499;28;20029;-90
2023/01/07 17:20:42;;;;;;;3.80;1.98;;;;;;;7.33;100.00;100391.88;5008626;28;20065;-91
2023/01/07 17:23:28;;;;;;;3.33;1.80;;;;;;;7.29;100.00;100387.09;4985281;28;20100;-90
2023/01/07 17:26:10;;;;;;;4.65;2.03;;;;;;;7.32;100.00;100384.84;5013607;28;20030;-90
2023/01/07 17:29:10;;;;;;;2.90;1.98;;;;;;;7.24;100.00;100366.13;4980261;28;20109;-90
2023/01/07 17:31:42;;;;;;;3.58;2.13;;;;;;;7.27;100.00;100360.31;4968273;28;20486;-90
2023/01/07 17:34:12;;;;;;;4.05;2.05;;;;;;;7.28;100.00;100355.75;4979956;28;20032;-90
2023/01/07 17:37:36;;;;;;;3.17;2.40;;;;;;;7.20;100.00;100349.53;4979890;28;20545;-90
2023/01/07 17:39:48;;;;;;;;;;;;;;;;;;;;;
2023/01/07 17:45:24;;;;;;;3.70;2.20;;;;;;;7.18;100.00;100335.41;4997354;28;20057;-90
2023/01/07 17:47:56;;;;;;;4.65;2.17;;;;;;;7.16;100.00;100325.84;4979585;28;20034;-90
2023/01/07 17:50:27;;;;;;;3.58;2.00;;;;;;;7.14;100.00;100309.03;4979815;28;20045;-90
2023/01/07 17:53:06;;;;;;;3.30;2.42;;;;;;;7.15;100.00;100308.84;4979849;28;20101;-91
2023/01/07 17:55:37;;;;;;;3.38;2.00;;;;;;;7.18;100.00;100302.19;4972051;28;20032;-90
2023/01/07 17:58:33;;;;;;;4.10;2.25;;;;;;;7.11;100.00;100296.78;4980116;28;20038;-91
2023/01/07 18:01:05;;;;;;;4.50;2.20;;;;;;;7.11;100.00;100295.97;4980309;28;20034;-91
2023/01/07 18:03:44;;;;;;;3.95;2.42;;;;;;;7.11;100.00;100294.09;4979731;28;20038;-90
2023/01/07 18:06:41;;;;;;;3.42;2.40;;;;;;;7.06;100.00;100295.75;4997431;28;20033;-91
2023/01/07 18:09:34;;;;;;;;;;;;;;;;;;;;;
2023/01/07 18:12:39;;;;;;;;;;;;;;;;;;;;;
2023/01/07 18:15:36;;;;;;;3.05;2.00;;;;;;;7.04;100.00;100304.03;4997099;28;20061;-91
2023/01/07 18:18:14;;;;;;;4.07;2.38;;;;;;;7.03;100.00;100303.22;4982214;28;20041;-91
2023/01/07 18:20:46;;;;;;;3.30;2.03;;;;;;;7.04;100.00;100304.03;4964429;28;20394;-91
2023/01/07 18:23:22;;;;;;;4.07;2.20;;;;;;;7.02;100.00;100300.72;4996072;28;20383;-91
2023/01/07 18:25:53;;;;;;;4.78;2.50;;;;;;;7.09;100.00;100296.19;4979184;28;20049;-91
2023/01/07 18:28:30;;;;;;;2.92;1.83;;;;;;;7.09;100.00;100303.44;4963482;28;20255;-90
2023/01/07 18:30:58;;;;;;;4.00;2.00;;;;;;;7.08;100.00;100309.88;4979176;28;20121;-90
2023/01/07 18:33:45;;;;;;;3.38;1.80;;;;;;;7.15;100.00;100292.66;4978879;28;20037;-91
2023/01/07 18:36:13;;;;;;;5.28;2.05;;;;;;;7.08;100.00;100294.50;4997150;28;20034;-91
2023/01/07 18:38:44;;;;;;;2.95;2.15;;;;;;;7.10;100.00;100294.28;5011359;28;20590;-90
2023/01/07 18:41:23;;;;;;;6.85;2.50;;;;;;;7.18;100.00;100308.41;4978899;28;20038;-90
2023/01/07 18:43:58;;;;;;;;;;;;;;;;;;;;;
2023/01/07 18:46:45;;;;;;;3.20;2.28;;;;;;;7.29;100.00;100322.34;4996195;28;20410;-91
2023/01/07 18:49:18;;;;;;;3.47;2.38;;;;;;;7.41;100.00;100306.34;4994690;28;20458;-91
2023/01/07 18:52:03;;;;;;;;;;;;;;;;;;;;;
2023/01/07 18:54:39;;;;;;;2.58;1.67;;;;;;;7.59;100.00;100325.47;4996339;28;20489;-91
2023/01/07 18:57:20;;;;;;;3.90;2.25;;;;;;;7.70;100.00;100303.22;4963459;28;20089;-91
2023/01/07 18:59:58;;;;;;;3.63;1.80;;;;;;;7.80;100.00;100307.38;4978534;28;20117;-91
2023/01/07 19:02:34;;;;;;;3.15;2.00;;;;;;;7.90;100.00;100302.38;5010872;28;20038;-91
2023/01/07 19:05:10;;;;;;;5.30;2.22;;;;;;;7.97;100.00;100288.84;4993737;28;20030;-92
2023/01/07 19:07:51;;;;;;;2.90;1.70;;;;;;;7.99;100.00;100301.09;4994379;28;20089;-91
2023/01/07 19:10:48;;;;;;;2.72;1.98;;;;;;;8.05;100.00;100296.72;4979031;28;20026;-91
2023/01/07 19:13:32;;;;;;;5.15;2.10;;;;;;;8.07;100.00;100295.47;4977712;28;20043;-93
2023/01/07 19:23:02;;;;;;;;;;;;;;;;;;;;;
2023/01/07 19:25:43;;;;;;;5.20;1.90;;;;;;;8.22;100.00;100287.09;4995697;28;20382;-91
2023/01/07 19:32:43;;;;;;;2.70;1.70;;;;;;;8.31;100.00;100294.97;4917487;28;20133;-92
2023/01/07 19:36:01;;;;;;;;;;;;;;;;;;;;;
2023/01/07 19:41:48;;;;;;;2.75;1.50;;;;;;;8.49;100.00;100310.50;4987944;28;20434;-92
2023/01/07 19:48:31;;;;;;;;;;;;;;;;;;;;;
2023/01/07 19:51:43;;;;;;;3.10;1.63;;;;;;;8.60;100.00;100299.84;4991183;28;20058;-93
2023/01/07 19:56:59;;;;;;;2.05;1.33;;;;;;;8.63;100.00;100281.53;4995677;28;20121;-92
2023/01/07 19:59:57;;;;;;;;;;;;;;;;;;;;;
2023/01/07 20:06:40;;;;;;;;;;;;;;;;;;;;;
2023/01/07 20:14:02;;;;;;;;;;;;;;;;;;;;;
2023/01/07 20:17:40;;;;;;;;;;;;;;;;;;;;;
2023/01/07 20:20:38;;;;;;;3.08;1.30;;;;;;;8.65;100.00;100265.91;4912822;29;20039;-90
2023/01/07 20:27:11;;;;;;;;;;;;;;;;;;;;;
2023/01/07 20:33:44;;;;;;;;;;;;;;;;;;;;;
2023/01/07 20:36:50;;;;;;;2.72;1.10;;;;;;;8.65;100.00;100249.69;4990872;28;20058;-90
2023/01/07 20:40:08;;;;;;;;;;;;;;;;;;;;;
2023/01/07 20:49:53;;;;;;;;;;;;;;;;;;;;;
2023/01/07 20:59:36;;;;;;;3.20;1.58;;;;;;;8.85;100.00;100241.47;4882430;28;20440;-93
2023/01/07 21:05:52;;;;;;;;;;;;;;;;;;;;;
2023/01/07 21:08:42;;;;;;;3.55;1.67;;;;;;;8.87;100.00;100242.91;4965696;28;20034;-92
2023/01/07 21:15:18;;;;;;;;;;;;;;;;;;;;;
2023/01/07 21:18:30;;;;;;;;;;;;;;;;;;;;;
2023/01/07 21:21:09;;;;;;;;;;;;;;;;;;;;;
2023/01/07 21:27:29;;;;;;;2.30;1.45;;;;;;;8.89;100.00;100227.28;4993673;28;20074;-94
2023/01/07 21:30:34;;;;;;;;;;;;;;;;;;;;;
2023/01/07 21:33:30;;;;;;;3.25;1.50;;;;;;;8.91;100.00;100221.63;4995327;28;20053;-94
2023/01/07 21:42:44;;;;;;;2.28;1.42;;;;;;;8.98;100.00;100232.44;4934190;29;20039;-94
2023/01/07 21:46:29;;;;;;;4.18;1.80;;;;;;;9.03;100.00;100228.00;4950674;29;20051;-94
2023/01/07 21:49:17;;;;;;;;;;;;;;;;;;;;;
2023/01/07 21:52:34;;;;;;;;;;;;;;;;;;;;;
2023/01/07 22:00:02;;;;;;;;;;;;;;;;;;;;;
2023/01/07 22:02:53;;;;;;;2.10;1.38;;;;;;;9.00;100.00;100228.44;4914770;29;20039;-95
2023/01/07 22:09:05;;;;;;;;;;;;;;;;;;;;;
2023/01/07 22:11:45;;;;;;;3.13;2.25;;;;;;;8.75;100.00;100212.19;4893133;29;20056;-95
2023/01/07 22:14:41;;;;;;;3.85;2.13;;;;;;;8.80;100.00;100217.78;4937956;29;20141;-94
2023/01/07 22:17:48;;;;;;;;;;;;;;;;;;;;;
2023/01/07 22:20:45;;;;;;;4.00;2.10;;;;;;;8.92;100.00;100217.91;4969066;28;20492;-95
2023/01/07 22:23:44;;;;;;;;;;;;;;;;;;;;;
2023/01/07 22:33:32;;;;;;;3.10;2.10;;;;;;;8.85;100.00;100200.88;4977939;28;20093;-94
2023/01/07 22:36:34;;;;;;;;;;;;;;;;;;;;;
2023/01/07 22:40:02;;;;;;;;;;;;;;;;;;;;;
2023/01/07 22:43:20;;;;;;;4.93;2.30;;;;;;;8.85;100.00;100199.00;4976782;28;20049;-95
2023/01/07 22:46:20;;;;;;;5.85;2.00;;;;;;;8.94;100.00;100213.91;4969879;28;20045;-95
2023/01/07 22:49:00;;;;;;;6.50;2.30;;;;;;;8.89;100.00;100210.22;4965099;28;20139;-93
2023/01/07 22:55:19;;;;;;;4.10;1.90;;;;;;;9.00;100.00;100214.09;4976759;28;20501;-94
2023/01/07 23:01:31;;;;;;;4.78;2.28;;;;;;;9.00;100.00;100209.50;4965796;28;20147;-94
2023/01/07 23:04:36;;;;;;;3.30;1.83;;;;;;;9.03;100.00;100202.81;4973463;28;20035;-94
2023/01/07 23:07:33;;;;;;;4.55;2.47;;;;;;;9.08;100.00;100187.56;4996633;28;20077;-94
2023/01/07 23:10:43;;;;;;;;;;;;;;;;;;;;;
2023/01/07 23:13:24;;;;;;;4.07;2.47;;;;;;;9.11;100.00;100205.25;4976734;28;20069;-95
2023/01/07 23:23:07;;;;;;;;;;;;;;;;;;;;;
2023/01/07 23:25:28;;;;;;;5.00;2.15;;;;;;;8.84;100.00;100191.91;4973413;28;20427;-94
2023/01/07 23:34:34;;;;;;;;;;;;;;;;;;;;;
2023/01/07 23:40:19;;;;;;;6.40;2.03;;;;;;;8.93;100.00;100206.84;4935636;29;20079;-93
2023/01/07 23:43:34;;;;;;;;;;;;;;;;;;;;;
2023/01/07 23:46:06;;;;;;;4.72;2.05;;;;;;;8.90;100.00;100173.97;4936011;29;20040;-94
2023/01/07 23:49:12;;;;;;;3.17;1.67;;;;;;;8.93;100.00;100184.38;4903720;29;20154;-94
2023/01/07 23:52:31;;;;;;;;;;;;;;;;;;;;;
2023/01/07 23:55:02;;;;;;;5.10;2.00;;;;;;;8.85;100.00;100182.75;4971138;28;20042;-94
2023/01/07 23:57:45;;;;;;;6.32;2.20;;;;;;;8.83;100.00;100175.91;4991009;28;20031;-95
